sensor_id;sensor_type;location;lat;lon;timestamp;P1;durP1;ratioP1;P2;durP2;ratioP2
37267;SDS011;23154;52.542;13.362;2023-06-14T00:00:32;7.78;;;2.55;;
37267;SDS011;23154;52.542;13.362;2023-06-14T00:03:00;9.68;;;2.20;;
37267;SDS011;23154;52.542;13.362;2023-06-14T00:05:25;6.30;;;2.50;;
37267;SDS011;23154;52.542;13.362;2023-06-14T00:07:53;10.85;;;2.88;;
37267;SDS011;23154;52.542;13.362;2023-06-14T00:10:19;10.65;;;2.80;;
37267;SDS011;23154;52.542;13.362;2023-06-14T00:12:45;10.13;;;2.95;;
37267;SDS011;23154;52.542;13.362;2023-06-14T00:15:11;6.45;;;2.30;;
37267;SDS011;23154;52.542;13.362;2023-06-14T00:17:37;8.40;;;2.30;;
37267;SDS011;23154;52.542;13.362;2023-06-14T00:20:04;9.07;;;2.78;;
37267;SDS011;23154;52.542;13.362;2023-06-14T00:22:33;7.00;;;2.50;;
37267;SDS011;23154;52.542;13.362;2023-06-14T00:25:01;8.60;;;2.40;;
37267;SDS011;23154;52.542;13.362;2023-06-14T00:27:27;8.85;;;2.40;;
37267;SDS011;23154;52.542;13.362;2023-06-14T00:29:53;7.50;;;2.25;;
37267;SDS011;23154;52.542;13.362;2023-06-14T00:32:20;5.90;;;2.30;;
37267;SDS011;23154;52.542;13.362;2023-06-14T00:37:16;12.10;;;3.25;;
37267;SDS011;23154;52.542;13.362;2023-06-14T00:39:42;12.20;;;2.97;;
37267;SDS011;23154;52.542;13.362;2023-06-14T00:42:08;11.57;;;2.67;;
37267;SDS011;23154;52.542;13.362;2023-06-14T00:44:35;13.18;;;3.80;;
37267;SDS011;23154;52.542;13.362;2023-06-14T00:47:01;13.75;;;3.72;;
37267;SDS011;23154;52.542;13.362;2023-06-14T00:49:27;18.33;;;4.57;;
37267;SDS011;23154;52.542;13.362;2023-06-14T00:51:55;17.13;;;3.53;;
37267;SDS011;23154;52.542;13.362;2023-06-14T00:54:21;13.60;;;3.85;;
37267;SDS011;23154;52.542;13.362;2023-06-14T00:56:47;9.30;;;2.78;;
37267;SDS011;23154;52.542;13.362;2023-06-14T00:59:13;9.77;;;2.92;;
37267;SDS011;23154;52.542;13.362;2023-06-14T01:01:40;25.67;;;8.18;;
37267;SDS011;23154;52.542;13.362;2023-06-14T01:04:06;9.90;;;2.65;;
37267;SDS011;23154;52.542;13.362;2023-06-14T01:09:15;10.77;;;3.05;;
37267;SDS011;23154;52.542;13.362;2023-06-14T01:11:50;11.52;;;3.20;;
37267;SDS011;23154;52.542;13.362;2023-06-14T01:14:19;13.38;;;4.18;;
37267;SDS011;23154;52.542;13.362;2023-06-14T01:16:46;13.98;;;3.47;;
37267;SDS011;23154;52.542;13.362;2023-06-14T01:19:12;12.55;;;3.63;;
37267;SDS011;23154;52.542;13.362;2023-06-14T01:21:39;8.48;;;2.97;;
37267;SDS011;23154;52.542;13.362;2023-06-14T01:24:06;10.68;;;3.47;;
37267;SDS011;23154;52.542;13.362;2023-06-14T01:26:33;11.55;;;3.00;;
37267;SDS011;23154;52.542;13.362;2023-06-14T01:29:00;12.85;;;3.65;;
37267;SDS011;23154;52.542;13.362;2023-06-14T01:31:26;8.18;;;2.90;;
37267;SDS011;23154;52.542;13.362;2023-06-14T01:33:54;10.75;;;3.38;;
37267;SDS011;23154;52.542;13.362;2023-06-14T01:36:20;9.52;;;3.47;;
37267;SDS011;23154;52.542;13.362;2023-06-14T01:38:48;11.88;;;3.42;;
37267;SDS011;23154;52.542;13.362;2023-06-14T01:41:16;11.52;;;2.97;;
37267;SDS011;23154;52.542;13.362;2023-06-14T01:43:42;10.02;;;3.15;;
37267;SDS011;23154;52.542;13.362;2023-06-14T01:46:08;10.13;;;3.33;;
37267;SDS011;23154;52.542;13.362;2023-06-14T01:48:35;11.90;;;3.40;;
37267;SDS011;23154;52.542;13.362;2023-06-14T01:51:01;11.18;;;3.30;;
37267;SDS011;23154;52.542;13.362;2023-06-14T01:53:27;9.82;;;3.38;;
37267;SDS011;23154;52.542;13.362;2023-06-14T01:55:53;11.13;;;3.35;;
37267;SDS011;23154;52.542;13.362;2023-06-14T01:58:20;12.57;;;3.38;;
37267;SDS011;23154;52.542;13.362;2023-06-14T02:00:46;11.95;;;3.38;;
37267;SDS011;23154;52.542;13.362;2023-06-14T02:03:12;12.27;;;3.47;;
37267;SDS011;23154;52.542;13.362;2023-06-14T02:05:38;9.07;;;3.28;;
37267;SDS011;23154;52.542;13.362;2023-06-14T02:08:05;11.95;;;3.28;;
37267;SDS011;23154;52.542;13.362;2023-06-14T02:10:31;11.18;;;3.45;;
37267;SDS011;23154;52.542;13.362;2023-06-14T02:12:57;9.25;;;3.33;;
37267;SDS011;23154;52.542;13.362;2023-06-14T02:15:23;10.40;;;3.03;;
37267;SDS011;23154;52.542;13.362;2023-06-14T02:17:49;12.15;;;3.78;;
37267;SDS011;23154;52.542;13.362;2023-06-14T02:20:16;12.65;;;3.20;;
37267;SDS011;23154;52.542;13.362;2023-06-14T02:22:42;10.63;;;3.65;;
37267;SDS011;23154;52.542;13.362;2023-06-14T02:25:08;10.30;;;3.47;;
37267;SDS011;23154;52.542;13.362;2023-06-14T02:27:34;12.07;;;3.97;;
37267;SDS011;23154;52.542;13.362;2023-06-14T02:30:01;14.15;;;3.92;;
37267;SDS011;23154;52.542;13.362;2023-06-14T02:32:27;10.25;;;3.35;;
37267;SDS011;23154;52.542;13.362;2023-06-14T02:34:53;10.23;;;3.58;;
37267;SDS011;23154;52.542;13.362;2023-06-14T02:37:19;12.70;;;4.30;;
37267;SDS011;23154;52.542;13.362;2023-06-14T02:39:45;15.43;;;4.07;;
37267;SDS011;23154;52.542;13.362;2023-06-14T02:42:11;14.57;;;5.20;;
37267;SDS011;23154;52.542;13.362;2023-06-14T02:44:37;11.52;;;4.72;;
37267;SDS011;23154;52.542;13.362;2023-06-14T02:47:04;12.32;;;4.45;;
37267;SDS011;23154;52.542;13.362;2023-06-14T02:49:30;13.20;;;5.10;;
37267;SDS011;23154;52.542;13.362;2023-06-14T02:51:56;12.52;;;4.72;;
37267;SDS011;23154;52.542;13.362;2023-06-14T02:54:22;13.40;;;5.00;;
37267;SDS011;23154;52.542;13.362;2023-06-14T02:56:48;15.88;;;5.55;;
37267;SDS011;23154;52.542;13.362;2023-06-14T02:59:15;12.65;;;4.90;;
37267;SDS011;23154;52.542;13.362;2023-06-14T03:01:42;13.90;;;5.22;;
37267;SDS011;23154;52.542;13.362;2023-06-14T03:04:08;14.98;;;5.78;;
37267;SDS011;23154;52.542;13.362;2023-06-14T03:06:34;13.63;;;5.70;;
37267;SDS011;23154;52.542;13.362;2023-06-14T03:09:01;14.48;;;6.68;;
37267;SDS011;23154;52.542;13.362;2023-06-14T03:11:30;16.17;;;6.95;;
37267;SDS011;23154;52.542;13.362;2023-06-14T03:13:56;15.63;;;6.43;;
37267;SDS011;23154;52.542;13.362;2023-06-14T03:16:22;15.27;;;6.95;;
37267;SDS011;23154;52.542;13.362;2023-06-14T03:18:52;14.65;;;6.78;;
37267;SDS011;23154;52.542;13.362;2023-06-14T03:21:18;15.45;;;6.88;;
37267;SDS011;23154;52.542;13.362;2023-06-14T03:23:45;15.55;;;6.38;;
37267;SDS011;23154;52.542;13.362;2023-06-14T03:26:11;14.07;;;6.53;;
37267;SDS011;23154;52.542;13.362;2023-06-14T03:28:43;14.38;;;6.55;;
37267;SDS011;23154;52.542;13.362;2023-06-14T03:31:10;15.63;;;6.40;;
37267;SDS011;23154;52.542;13.362;2023-06-14T03:33:36;14.05;;;6.28;;
37267;SDS011;23154;52.542;13.362;2023-06-14T03:36:02;18.15;;;6.80;;
37267;SDS011;23154;52.542;13.362;2023-06-14T03:38:28;14.25;;;6.72;;
37267;SDS011;23154;52.542;13.362;2023-06-14T03:40:55;15.63;;;7.03;;
37267;SDS011;23154;52.542;13.362;2023-06-14T03:43:21;17.17;;;7.10;;
37267;SDS011;23154;52.542;13.362;2023-06-14T03:45:47;15.68;;;6.93;;
37267;SDS011;23154;52.542;13.362;2023-06-14T03:48:13;15.35;;;4.97;;
37267;SDS011;23154;52.542;13.362;2023-06-14T03:50:39;13.77;;;4.70;;
37267;SDS011;23154;52.542;13.362;2023-06-14T03:53:05;13.10;;;4.38;;
37267;SDS011;23154;52.542;13.362;2023-06-14T03:55:34;13.55;;;4.43;;
37267;SDS011;23154;52.542;13.362;2023-06-14T03:58:00;14.53;;;4.73;;
37267;SDS011;23154;52.542;13.362;2023-06-14T04:00:27;15.15;;;4.68;;
37267;SDS011;23154;52.542;13.362;2023-06-14T04:02:53;12.80;;;4.47;;
37267;SDS011;23154;52.542;13.362;2023-06-14T04:05:19;12.73;;;4.47;;
37267;SDS011;23154;52.542;13.362;2023-06-14T04:07:45;13.52;;;4.60;;
37267;SDS011;23154;52.542;13.362;2023-06-14T04:10:13;16.02;;;5.00;;
37267;SDS011;23154;52.542;13.362;2023-06-14T04:12:39;11.63;;;4.15;;
37267;SDS011;23154;52.542;13.362;2023-06-14T04:15:06;14.68;;;4.70;;
37267;SDS011;23154;52.542;13.362;2023-06-14T04:17:33;13.52;;;4.65;;
37267;SDS011;23154;52.542;13.362;2023-06-14T04:19:59;13.85;;;4.50;;
37267;SDS011;23154;52.542;13.362;2023-06-14T04:22:25;12.05;;;4.05;;
37267;SDS011;23154;52.542;13.362;2023-06-14T04:24:56;14.45;;;4.93;;
37267;SDS011;23154;52.542;13.362;2023-06-14T04:27:28;13.98;;;4.47;;
37267;SDS011;23154;52.542;13.362;2023-06-14T04:29:56;15.43;;;4.28;;
37267;SDS011;23154;52.542;13.362;2023-06-14T04:32:23;13.75;;;4.53;;
37267;SDS011;23154;52.542;13.362;2023-06-14T04:34:54;12.98;;;4.82;;
37267;SDS011;23154;52.542;13.362;2023-06-14T04:37:23;15.35;;;4.85;;
37267;SDS011;23154;52.542;13.362;2023-06-14T04:39:49;13.52;;;4.20;;
37267;SDS011;23154;52.542;13.362;2023-06-14T04:42:16;15.57;;;4.60;;
37267;SDS011;23154;52.542;13.362;2023-06-14T04:44:45;11.88;;;3.92;;
37267;SDS011;23154;52.542;13.362;2023-06-14T04:47:12;14.25;;;4.88;;
37267;SDS011;23154;52.542;13.362;2023-06-14T04:49:39;13.50;;;5.03;;
37267;SDS011;23154;52.542;13.362;2023-06-14T04:52:06;16.70;;;4.60;;
37267;SDS011;23154;52.542;13.362;2023-06-14T04:54:32;15.20;;;4.47;;
37267;SDS011;23154;52.542;13.362;2023-06-14T04:56:58;14.93;;;4.50;;
37267;SDS011;23154;52.542;13.362;2023-06-14T04:59:24;15.90;;;4.47;;
37267;SDS011;23154;52.542;13.362;2023-06-14T05:01:51;12.10;;;4.30;;
37267;SDS011;23154;52.542;13.362;2023-06-14T05:04:18;14.20;;;4.70;;
37267;SDS011;23154;52.542;13.362;2023-06-14T05:06:45;18.75;;;5.10;;
37267;SDS011;23154;52.542;13.362;2023-06-14T05:09:13;14.07;;;4.80;;
37267;SDS011;23154;52.542;13.362;2023-06-14T05:11:40;15.00;;;5.18;;
37267;SDS011;23154;52.542;13.362;2023-06-14T05:14:10;13.88;;;4.03;;
37267;SDS011;23154;52.542;13.362;2023-06-14T05:16:36;15.85;;;4.53;;
37267;SDS011;23154;52.542;13.362;2023-06-14T05:19:02;14.27;;;4.68;;
37267;SDS011;23154;52.542;13.362;2023-06-14T05:21:31;21.83;;;5.00;;
37267;SDS011;23154;52.542;13.362;2023-06-14T05:23:59;15.25;;;5.22;;
37267;SDS011;23154;52.542;13.362;2023-06-14T05:26:25;12.43;;;4.32;;
37267;SDS011;23154;52.542;13.362;2023-06-14T05:28:56;14.27;;;4.57;;
37267;SDS011;23154;52.542;13.362;2023-06-14T05:31:23;15.02;;;4.70;;
37267;SDS011;23154;52.542;13.362;2023-06-14T05:33:50;15.40;;;4.65;;
37267;SDS011;23154;52.542;13.362;2023-06-14T05:36:16;14.05;;;4.40;;
37267;SDS011;23154;52.542;13.362;2023-06-14T05:38:43;19.15;;;4.63;;
37267;SDS011;23154;52.542;13.362;2023-06-14T05:41:09;13.30;;;4.47;;
37267;SDS011;23154;52.542;13.362;2023-06-14T05:43:35;16.15;;;5.35;;
37267;SDS011;23154;52.542;13.362;2023-06-14T05:46:01;13.40;;;4.50;;
37267;SDS011;23154;52.542;13.362;2023-06-14T05:48:27;14.68;;;4.90;;
37267;SDS011;23154;52.542;13.362;2023-06-14T05:50:53;15.30;;;4.38;;
37267;SDS011;23154;52.542;13.362;2023-06-14T05:53:19;13.13;;;4.03;;
37267;SDS011;23154;52.542;13.362;2023-06-14T05:55:45;15.43;;;3.90;;
37267;SDS011;23154;52.542;13.362;2023-06-14T05:58:11;14.27;;;4.35;;
37267;SDS011;23154;52.542;13.362;2023-06-14T06:00:38;13.77;;;4.65;;
37267;SDS011;23154;52.542;13.362;2023-06-14T06:03:04;13.32;;;4.38;;
37267;SDS011;23154;52.542;13.362;2023-06-14T06:05:33;17.83;;;5.03;;
37267;SDS011;23154;52.542;13.362;2023-06-14T06:07:59;14.45;;;4.70;;
37267;SDS011;23154;52.542;13.362;2023-06-14T06:10:25;13.70;;;4.68;;
37267;SDS011;23154;52.542;13.362;2023-06-14T06:12:51;14.10;;;4.57;;
37267;SDS011;23154;52.542;13.362;2023-06-14T06:15:19;13.27;;;4.20;;
37267;SDS011;23154;52.542;13.362;2023-06-14T06:17:46;14.90;;;4.32;;
37267;SDS011;23154;52.542;13.362;2023-06-14T06:20:12;17.02;;;4.43;;
37267;SDS011;23154;52.542;13.362;2023-06-14T06:22:38;14.07;;;4.65;;
37267;SDS011;23154;52.542;13.362;2023-06-14T06:25:04;13.43;;;4.43;;
37267;SDS011;23154;52.542;13.362;2023-06-14T06:27:31;14.73;;;4.40;;
37267;SDS011;23154;52.542;13.362;2023-06-14T06:29:57;12.27;;;4.38;;
37267;SDS011;23154;52.542;13.362;2023-06-14T06:32:23;11.85;;;4.15;;
37267;SDS011;23154;52.542;13.362;2023-06-14T06:34:50;17.65;;;4.60;;
37267;SDS011;23154;52.542;13.362;2023-06-14T06:37:16;15.50;;;5.03;;
37267;SDS011;23154;52.542;13.362;2023-06-14T06:39:43;16.08;;;4.47;;
37267;SDS011;23154;52.542;13.362;2023-06-14T06:42:09;16.75;;;4.53;;
37267;SDS011;23154;52.542;13.362;2023-06-14T06:44:35;16.15;;;4.43;;
37267;SDS011;23154;52.542;13.362;2023-06-14T06:47:01;16.25;;;4.65;;
37267;SDS011;23154;52.542;13.362;2023-06-14T06:49:27;18.40;;;5.25;;
37267;SDS011;23154;52.542;13.362;2023-06-14T06:52:03;13.93;;;4.40;;
37267;SDS011;23154;52.542;13.362;2023-06-14T06:54:30;14.52;;;4.40;;
37267;SDS011;23154;52.542;13.362;2023-06-14T06:56:56;12.80;;;4.35;;
37267;SDS011;23154;52.542;13.362;2023-06-14T06:59:22;13.80;;;4.50;;
37267;SDS011;23154;52.542;13.362;2023-06-14T07:01:48;13.13;;;4.50;;
37267;SDS011;23154;52.542;13.362;2023-06-14T07:04:14;14.07;;;4.32;;
37267;SDS011;23154;52.542;13.362;2023-06-14T07:06:41;14.25;;;4.25;;
37267;SDS011;23154;52.542;13.362;2023-06-14T07:09:07;12.77;;;4.43;;
37267;SDS011;23154;52.542;13.362;2023-06-14T07:11:37;12.15;;;4.18;;
37267;SDS011;23154;52.542;13.362;2023-06-14T07:14:05;13.15;;;4.45;;
37267;SDS011;23154;52.542;13.362;2023-06-14T07:16:31;14.10;;;4.18;;
37267;SDS011;23154;52.542;13.362;2023-06-14T07:18:58;16.60;;;4.13;;
37267;SDS011;23154;52.542;13.362;2023-06-14T07:21:24;14.25;;;4.13;;
37267;SDS011;23154;52.542;13.362;2023-06-14T07:23:51;15.45;;;4.30;;
37267;SDS011;23154;52.542;13.362;2023-06-14T07:26:17;17.35;;;4.72;;
37267;SDS011;23154;52.542;13.362;2023-06-14T07:28:43;28.33;;;5.28;;
37267;SDS011;23154;52.542;13.362;2023-06-14T07:31:11;21.77;;;4.57;;
37267;SDS011;23154;52.542;13.362;2023-06-14T07:33:37;11.45;;;3.72;;
37267;SDS011;23154;52.542;13.362;2023-06-14T07:36:03;24.52;;;4.72;;
37267;SDS011;23154;52.542;13.362;2023-06-14T07:38:29;13.77;;;3.63;;
37267;SDS011;23154;52.542;13.362;2023-06-14T07:40:55;16.23;;;4.00;;
37267;SDS011;23154;52.542;13.362;2023-06-14T07:43:21;13.45;;;3.70;;
37267;SDS011;23154;52.542;13.362;2023-06-14T07:45:47;14.50;;;4.45;;
37267;SDS011;23154;52.542;13.362;2023-06-14T07:48:13;15.70;;;3.90;;
37267;SDS011;23154;52.542;13.362;2023-06-14T07:50:39;11.55;;;3.60;;
37267;SDS011;23154;52.542;13.362;2023-06-14T07:53:06;12.48;;;4.22;;
37267;SDS011;23154;52.542;13.362;2023-06-14T07:55:32;11.52;;;3.30;;
37267;SDS011;23154;52.542;13.362;2023-06-14T07:58:01;13.85;;;4.53;;
37267;SDS011;23154;52.542;13.362;2023-06-14T08:00:27;17.75;;;3.85;;
37267;SDS011;23154;52.542;13.362;2023-06-14T08:02:53;12.35;;;3.80;;
37267;SDS011;23154;52.542;13.362;2023-06-14T08:05:23;21.88;;;6.93;;
37267;SDS011;23154;52.542;13.362;2023-06-14T08:07:50;11.88;;;3.83;;
37267;SDS011;23154;52.542;13.362;2023-06-14T08:10:16;13.18;;;3.40;;
37267;SDS011;23154;52.542;13.362;2023-06-14T08:12:43;12.85;;;3.92;;
37267;SDS011;23154;52.542;13.362;2023-06-14T08:15:09;11.52;;;3.70;;
37267;SDS011;23154;52.542;13.362;2023-06-14T08:17:35;10.52;;;3.13;;
37267;SDS011;23154;52.542;13.362;2023-06-14T08:20:02;11.63;;;3.25;;
37267;SDS011;23154;52.542;13.362;2023-06-14T08:22:29;13.07;;;3.90;;
37267;SDS011;23154;52.542;13.362;2023-06-14T08:24:58;10.07;;;3.17;;
37267;SDS011;23154;52.542;13.362;2023-06-14T08:27:24;14.25;;;3.65;;
37267;SDS011;23154;52.542;13.362;2023-06-14T08:29:51;12.85;;;3.63;;
37267;SDS011;23154;52.542;13.362;2023-06-14T08:32:17;9.80;;;3.17;;
37267;SDS011;23154;52.542;13.362;2023-06-14T08:34:43;11.85;;;3.70;;
37267;SDS011;23154;52.542;13.362;2023-06-14T08:37:09;9.70;;;3.05;;
37267;SDS011;23154;52.542;13.362;2023-06-14T08:39:35;11.07;;;3.88;;
37267;SDS011;23154;52.542;13.362;2023-06-14T08:42:02;13.50;;;3.63;;
37267;SDS011;23154;52.542;13.362;2023-06-14T08:44:29;12.63;;;3.72;;
37267;SDS011;23154;52.542;13.362;2023-06-14T08:46:58;10.30;;;3.30;;
37267;SDS011;23154;52.542;13.362;2023-06-14T08:49:25;9.07;;;2.88;;
37267;SDS011;23154;52.542;13.362;2023-06-14T08:52:00;11.48;;;3.28;;
37267;SDS011;23154;52.542;13.362;2023-06-14T08:54:30;10.55;;;3.20;;
37267;SDS011;23154;52.542;13.362;2023-06-14T08:56:57;11.18;;;3.13;;
37267;SDS011;23154;52.542;13.362;2023-06-14T08:59:24;11.02;;;3.13;;
37267;SDS011;23154;52.542;13.362;2023-06-14T09:01:51;11.43;;;3.40;;
37267;SDS011;23154;52.542;13.362;2023-06-14T09:04:19;8.20;;;3.25;;
37267;SDS011;23154;52.542;13.362;2023-06-14T09:06:46;11.90;;;3.10;;
37267;SDS011;23154;52.542;13.362;2023-06-14T09:09:17;11.13;;;2.83;;
37267;SDS011;23154;52.542;13.362;2023-06-14T09:11:43;9.40;;;2.60;;
37267;SDS011;23154;52.542;13.362;2023-06-14T09:14:09;10.43;;;3.05;;
37267;SDS011;23154;52.542;13.362;2023-06-14T09:16:35;10.02;;;2.75;;
37267;SDS011;23154;52.542;13.362;2023-06-14T09:19:02;10.10;;;2.90;;
37267;SDS011;23154;52.542;13.362;2023-06-14T09:21:28;12.55;;;3.00;;
37267;SDS011;23154;52.542;13.362;2023-06-14T09:23:59;8.00;;;2.60;;
37267;SDS011;23154;52.542;13.362;2023-06-14T09:26:25;10.20;;;3.22;;
37267;SDS011;23154;52.542;13.362;2023-06-14T09:28:52;12.30;;;3.10;;
37267;SDS011;23154;52.542;13.362;2023-06-14T09:31:20;12.38;;;3.38;;
37267;SDS011;23154;52.542;13.362;2023-06-14T09:33:50;8.75;;;3.05;;
37267;SDS011;23154;52.542;13.362;2023-06-14T09:36:17;13.20;;;3.78;;
37267;SDS011;23154;52.542;13.362;2023-06-14T09:38:56;18.27;;;5.30;;
37267;SDS011;23154;52.542;13.362;2023-06-14T09:41:31;13.07;;;3.65;;
37267;SDS011;23154;52.542;13.362;2023-06-14T09:44:01;13.65;;;3.40;;
37267;SDS011;23154;52.542;13.362;2023-06-14T09:46:27;11.98;;;2.92;;
37267;SDS011;23154;52.542;13.362;2023-06-14T09:48:54;11.32;;;2.90;;
37267;SDS011;23154;52.542;13.362;2023-06-14T09:51:21;10.00;;;3.05;;
37267;SDS011;23154;52.542;13.362;2023-06-14T09:53:48;8.38;;;2.80;;
37267;SDS011;23154;52.542;13.362;2023-06-14T09:56:48;14.93;;;3.58;;
37267;SDS011;23154;52.542;13.362;2023-06-14T09:59:08;8.52;;;2.75;;
37267;SDS011;23154;52.542;13.362;2023-06-14T10:01:35;9.13;;;2.60;;
37267;SDS011;23154;52.542;13.362;2023-06-14T10:04:04;11.48;;;3.42;;
37267;SDS011;23154;52.542;13.362;2023-06-14T10:06:31;10.68;;;3.20;;
37267;SDS011;23154;52.542;13.362;2023-06-14T10:08:58;12.30;;;3.00;;
37267;SDS011;23154;52.542;13.362;2023-06-14T10:11:28;11.10;;;3.30;;
37267;SDS011;23154;52.542;13.362;2023-06-14T10:13:57;13.07;;;4.17;;
37267;SDS011;23154;52.542;13.362;2023-06-14T10:18:59;13.88;;;3.72;;
37267;SDS011;23154;52.542;13.362;2023-06-14T10:23:53;13.10;;;3.17;;
37267;SDS011;23154;52.542;13.362;2023-06-14T10:26:19;11.45;;;3.00;;
37267;SDS011;23154;52.542;13.362;2023-06-14T10:29:07;11.70;;;3.30;;
37267;SDS011;23154;52.542;13.362;2023-06-14T10:31:43;10.18;;;3.15;;
37267;SDS011;23154;52.542;13.362;2023-06-14T10:34:09;10.60;;;3.30;;
37267;SDS011;23154;52.542;13.362;2023-06-14T10:36:35;7.60;;;2.53;;
37267;SDS011;23154;52.542;13.362;2023-06-14T10:39:06;11.10;;;2.88;;
37267;SDS011;23154;52.542;13.362;2023-06-14T10:41:37;10.15;;;3.05;;
37267;SDS011;23154;52.542;13.362;2023-06-14T10:47:00;14.30;;;3.20;;
37267;SDS011;23154;52.542;13.362;2023-06-14T10:52:14;12.30;;;3.33;;
37267;SDS011;23154;52.542;13.362;2023-06-14T10:57:22;11.82;;;3.08;;
37267;SDS011;23154;52.542;13.362;2023-06-14T10:59:48;14.55;;;3.10;;
37267;SDS011;23154;52.542;13.362;2023-06-14T11:02:20;13.85;;;3.13;;
37267;SDS011;23154;52.542;13.362;2023-06-14T11:04:53;13.00;;;2.85;;
37267;SDS011;23154;52.542;13.362;2023-06-14T11:10:17;13.15;;;3.40;;
37267;SDS011;23154;52.542;13.362;2023-06-14T11:12:47;10.07;;;3.30;;
37267;SDS011;23154;52.542;13.362;2023-06-14T11:15:14;11.52;;;3.45;;
37267;SDS011;23154;52.542;13.362;2023-06-14T11:17:49;12.85;;;3.13;;
37267;SDS011;23154;52.542;13.362;2023-06-14T11:20:16;8.77;;;2.88;;
37267;SDS011;23154;52.542;13.362;2023-06-14T11:22:42;26.30;;;10.25;;
37267;SDS011;23154;52.542;13.362;2023-06-14T11:25:09;13.10;;;3.40;;
37267;SDS011;23154;52.542;13.362;2023-06-14T11:27:35;12.43;;;2.95;;
37267;SDS011;23154;52.542;13.362;2023-06-14T11:30:01;12.93;;;4.03;;
37267;SDS011;23154;52.542;13.362;2023-06-14T11:32:27;12.98;;;4.03;;
37267;SDS011;23154;52.542;13.362;2023-06-14T11:34:53;10.82;;;3.33;;
37267;SDS011;23154;52.542;13.362;2023-06-14T11:37:19;14.23;;;4.18;;
37267;SDS011;23154;52.542;13.362;2023-06-14T11:39:46;14.15;;;3.63;;
37267;SDS011;23154;52.542;13.362;2023-06-14T11:42:15;9.88;;;3.10;;
37267;SDS011;23154;52.542;13.362;2023-06-14T11:44:41;11.80;;;3.43;;
37267;SDS011;23154;52.542;13.362;2023-06-14T11:47:07;14.07;;;3.95;;
37267;SDS011;23154;52.542;13.362;2023-06-14T11:49:36;11.90;;;3.60;;
37267;SDS011;23154;52.542;13.362;2023-06-14T11:52:02;9.70;;;3.03;;
37267;SDS011;23154;52.542;13.362;2023-06-14T11:54:28;11.52;;;3.17;;
37267;SDS011;23154;52.542;13.362;2023-06-14T11:56:54;8.90;;;2.58;;
37267;SDS011;23154;52.542;13.362;2023-06-14T11:59:20;9.95;;;3.45;;
37267;SDS011;23154;52.542;13.362;2023-06-14T12:01:47;9.15;;;3.78;;
37267;SDS011;23154;52.542;13.362;2023-06-14T12:04:13;9.95;;;4.05;;
37267;SDS011;23154;52.542;13.362;2023-06-14T12:06:40;11.10;;;4.95;;
37267;SDS011;23154;52.542;13.362;2023-06-14T12:09:06;13.20;;;5.70;;
37267;SDS011;23154;52.542;13.362;2023-06-14T12:11:37;12.80;;;5.70;;
37267;SDS011;23154;52.542;13.362;2023-06-14T12:14:04;11.65;;;4.95;;
37267;SDS011;23154;52.542;13.362;2023-06-14T12:16:31;15.70;;;6.47;;
37267;SDS011;23154;52.542;13.362;2023-06-14T12:19:00;14.38;;;7.68;;
37267;SDS011;23154;52.542;13.362;2023-06-14T12:21:27;13.93;;;8.82;;
37267;SDS011;23154;52.542;13.362;2023-06-14T12:23:53;19.88;;;9.77;;
37267;SDS011;23154;52.542;13.362;2023-06-14T12:26:20;15.85;;;10.20;;
37267;SDS011;23154;52.542;13.362;2023-06-14T12:28:46;18.67;;;11.20;;
37267;SDS011;23154;52.542;13.362;2023-06-14T12:31:13;16.13;;;11.32;;
37267;SDS011;23154;52.542;13.362;2023-06-14T12:33:40;17.17;;;10.73;;
37267;SDS011;23154;52.542;13.362;2023-06-14T12:36:09;15.00;;;10.15;;
37267;SDS011;23154;52.542;13.362;2023-06-14T12:38:35;15.45;;;10.35;;
37267;SDS011;23154;52.542;13.362;2023-06-14T12:41:01;19.75;;;10.50;;
37267;SDS011;23154;52.542;13.362;2023-06-14T12:43:27;16.83;;;10.70;;
37267;SDS011;23154;52.542;13.362;2023-06-14T12:45:53;15.57;;;10.10;;
37267;SDS011;23154;52.542;13.362;2023-06-14T12:48:20;15.65;;;10.52;;
37267;SDS011;23154;52.542;13.362;2023-06-14T12:50:46;14.77;;;10.48;;
37267;SDS011;23154;52.542;13.362;2023-06-14T12:53:12;18.20;;;10.65;;
37267;SDS011;23154;52.542;13.362;2023-06-14T12:55:38;18.73;;;10.75;;
37267;SDS011;23154;52.542;13.362;2023-06-14T12:58:04;16.00;;;10.02;;
37267;SDS011;23154;52.542;13.362;2023-06-14T13:00:30;20.83;;;11.43;;
37267;SDS011;23154;52.542;13.362;2023-06-14T13:02:56;15.93;;;10.68;;
37267;SDS011;23154;52.542;13.362;2023-06-14T13:05:22;17.83;;;12.80;;
37267;SDS011;23154;52.542;13.362;2023-06-14T13:07:49;18.23;;;13.32;;
37267;SDS011;23154;52.542;13.362;2023-06-14T13:10:15;23.63;;;13.63;;
37267;SDS011;23154;52.542;13.362;2023-06-14T13:12:42;20.67;;;11.20;;
37267;SDS011;23154;52.542;13.362;2023-06-14T13:15:08;15.98;;;11.10;;
37267;SDS011;23154;52.542;13.362;2023-06-14T13:17:34;15.27;;;10.73;;
37267;SDS011;23154;52.542;13.362;2023-06-14T13:20:07;15.90;;;11.73;;
37267;SDS011;23154;52.542;13.362;2023-06-14T13:22:33;15.32;;;11.15;;
37267;SDS011;23154;52.542;13.362;2023-06-14T13:25:00;25.33;;;15.88;;
37267;SDS011;23154;52.542;13.362;2023-06-14T13:27:26;28.90;;;16.10;;
37267;SDS011;23154;52.542;13.362;2023-06-14T13:29:52;17.67;;;11.80;;
37267;SDS011;23154;52.542;13.362;2023-06-14T13:32:20;21.48;;;12.18;;
37267;SDS011;23154;52.542;13.362;2023-06-14T13:34:46;16.50;;;11.32;;
37267;SDS011;23154;52.542;13.362;2023-06-14T13:37:12;16.00;;;10.60;;
37267;SDS011;23154;52.542;13.362;2023-06-14T13:39:38;16.35;;;11.60;;
37267;SDS011;23154;52.542;13.362;2023-06-14T13:42:04;16.00;;;11.40;;
37267;SDS011;23154;52.542;13.362;2023-06-14T13:44:31;16.00;;;11.25;;
37267;SDS011;23154;52.542;13.362;2023-06-14T13:46:57;17.17;;;11.38;;
37267;SDS011;23154;52.542;13.362;2023-06-14T13:49:23;17.33;;;11.80;;
37267;SDS011;23154;52.542;13.362;2023-06-14T13:51:49;17.60;;;11.43;;
37267;SDS011;23154;52.542;13.362;2023-06-14T13:54:20;15.38;;;11.40;;
37267;SDS011;23154;52.542;13.362;2023-06-14T13:56:46;16.08;;;11.18;;
37267;SDS011;23154;52.542;13.362;2023-06-14T13:59:12;15.48;;;11.30;;
37267;SDS011;23154;52.542;13.362;2023-06-14T14:01:38;17.27;;;11.00;;
37267;SDS011;23154;52.542;13.362;2023-06-14T14:04:04;15.98;;;11.80;;
37267;SDS011;23154;52.542;13.362;2023-06-14T14:06:30;15.65;;;11.20;;
37267;SDS011;23154;52.542;13.362;2023-06-14T14:08:57;17.17;;;11.60;;
37267;SDS011;23154;52.542;13.362;2023-06-14T14:11:23;17.13;;;11.35;;
37267;SDS011;23154;52.542;13.362;2023-06-14T14:13:49;16.38;;;11.77;;
37267;SDS011;23154;52.542;13.362;2023-06-14T14:16:15;17.67;;;12.23;;
37267;SDS011;23154;52.542;13.362;2023-06-14T14:18:41;16.88;;;11.70;;
37267;SDS011;23154;52.542;13.362;2023-06-14T14:21:07;15.50;;;12.05;;
37267;SDS011;23154;52.542;13.362;2023-06-14T14:23:34;18.90;;;11.73;;
37267;SDS011;23154;52.542;13.362;2023-06-14T14:26:00;17.55;;;12.30;;
37267;SDS011;23154;52.542;13.362;2023-06-14T14:28:29;19.15;;;12.15;;
37267;SDS011;23154;52.542;13.362;2023-06-14T14:30:55;19.85;;;12.13;;
37267;SDS011;23154;52.542;13.362;2023-06-14T14:33:21;20.77;;;12.00;;
37267;SDS011;23154;52.542;13.362;2023-06-14T14:35:47;17.85;;;11.57;;
37267;SDS011;23154;52.542;13.362;2023-06-14T14:38:13;17.42;;;11.25;;
37267;SDS011;23154;52.542;13.362;2023-06-14T14:40:41;16.38;;;11.57;;